Time;durP1;ratioP1;P1;durP2;ratioP2;P2;SDS_P1;SDS_P2;PMS_P1;PMS_P2;Temp;Humidity;BMP_temperature;BMP_pressure;BME280_temperature;BME280_humidity;BME280_pressure;Samples;Min_cycle;Max_cycle;Signal;HPM_P1;HPM_P2
2021/12/18 00:00:25;;;;;;;2.72;1.00;;;6.50;99.90;;;;;;4810505;29;20482;-80
2021/12/18 00:02:51;;;;;;;1.50;0.85;;;6.50;99.90;;;;;;4845234;29;20129;-82
2021/12/18 00:05:17;;;;;;;1.90;1.05;;;6.50;99.90;;;;;;4820247;29;20404;-83
2021/12/18 00:07:43;;;;;;;1.38;0.73;;;6.50;99.90;;;;;;4835320;29;20050;-82
2021/12/18 00:10:09;;;;;;;1.70;0.88;;;6.50;99.90;;;;;;4829942;29;20046;-83
2021/12/18 00:12:40;;;;;;;1.70;0.90;;;6.50;99.90;;;;;;4861941;29;20045;-83
2021/12/18 00:15:07;;;;;;;2.90;0.95;;;6.50;99.90;;;;;;4845842;29;20578;-82
2021/12/18 00:17:33;;;;;;;2.25;1.20;;;6.50;99.90;;;;;;4833356;29;20045;-82
2021/12/18 00:19:58;;;;;;;1.88;0.90;;;6.50;99.90;;;;;;4833336;29;20044;-82
2021/12/18 00:22:24;;;;;;;2.40;1.10;;;6.40;99.90;;;;;;4847101;29;20042;-83
2021/12/18 00:24:50;;;;;;;2.53;1.00;;;6.40;99.90;;;;;;4828089;29;20057;-82
2021/12/18 00:27:15;;;;;;;2.00;0.90;;;6.50;99.90;;;;;;4799806;29;20395;-82
2021/12/18 00:29:41;;;;;;;1.83;1.00;;;6.50;99.90;;;;;;4841267;29;20053;-83
2021/12/18 00:32:07;;;;;;;3.28;1.20;;;6.50;99.90;;;;;;4826753;29;20496;-83
2021/12/18 00:34:33;;;;;;;1.60;0.88;;;6.50;99.90;;;;;;4826977;29;20056;-83
2021/12/18 00:36:58;;;;;;;3.17;1.30;;;6.50;99.90;;;;;;4829483;29;20532;-85
2021/12/18 00:39:24;;;;;;;2.47;1.30;;;6.50;99.90;;;;;;4814890;29;20416;-85
2021/12/18 00:44:54;;;;;;;2.35;1.25;;;6.50;99.90;;;;;;4797798;29;20093;-85
2021/12/18 00:47:19;;;;;;;1.95;1.10;;;6.50;99.90;;;;;;4807852;29;20199;-85
2021/12/18 00:49:45;;;;;;;1.85;1.25;;;6.50;99.90;;;;;;4806639;29;20064;-85
2021/12/18 00:52:12;;;;;;;2.17;1.00;;;6.40;99.90;;;;;;4829086;29;20046;-85
2021/12/18 00:54:37;;;;;;;1.65;0.93;;;6.40;99.90;;;;;;4806740;29;20054;-85
2021/12/18 00:57:04;;;;;;;2.63;1.40;;;6.40;99.90;;;;;;4837162;29;20107;-85
2021/12/18 00:59:32;;;;;;;2.92;1.20;;;6.40;99.90;;;;;;4822887;29;20058;-85
2021/12/18 01:01:57;;;;;;;2.85;1.38;;;6.40;99.90;;;;;;4834991;29;20053;-83
2021/12/18 01:04:23;;;;;;;2.75;1.30;;;6.40;99.90;;;;;;4813999;29;20101;-84
2021/12/18 01:06:49;;;;;;;2.60;1.10;;;6.30;99.90;;;;;;4829057;29;20053;-85
2021/12/18 01:09:18;;;;;;;2.35;1.20;;;6.30;99.90;;;;;;4816712;29;20080;-85
2021/12/18 01:11:46;;;;;;;2.70;1.30;;;6.40;99.90;;;;;;4843122;29;20392;-85
2021/12/18 01:25:00;;;;;;;2.17;1.20;;;6.30;99.90;;;;;;4841200;29;20053;-85
2021/12/18 01:27:26;;;;;;;4.22;1.10;;;6.30;99.90;;;;;;4831989;29;20132;-83
2021/12/18 01:29:51;;;;;;;2.28;1.00;;;6.30;99.90;;;;;;4820202;29;20578;-85
2021/12/18 01:32:17;;;;;;;2.55;1.10;;;6.30;99.90;;;;;;4872730;29;20124;-85
2021/12/18 01:34:44;;;;;;;2.65;1.00;;;6.30;99.90;;;;;;4844020;29;20455;-85
2021/12/18 01:37:10;;;;;;;;;;;6.30;99.90;;;;;;4844444;29;20045;-86
2021/12/18 01:39:35;;;;;;;2.47;1.30;;;6.30;99.90;;;;;;4828776;29;19919;-85
2021/12/18 01:44:57;;;;;;;2.10;1.00;;;6.30;99.90;;;;;;4832695;29;20045;-84
2021/12/18 01:52:54;;;;;;;1.95;1.10;;;6.30;99.90;;;;;;4843655;29;20056;-85
2021/12/18 01:55:21;;;;;;;2.05;1.23;;;6.20;99.90;;;;;;4828559;29;20044;-84
2021/12/18 01:57:47;;;;;;;2.22;1.13;;;6.20;99.90;;;;;;4809146;29;20042;-84
2021/12/18 02:00:19;;;;;;;2.53;1.50;;;6.30;99.90;;;;;;4810484;29;20412;-84
2021/12/18 02:02:44;;;;;;;3.28;1.65;;;6.30;99.90;;;;;;4819386;29;20060;-84
2021/12/18 02:05:11;;;;;;;2.50;1.48;;;6.20;99.90;;;;;;4795623;29;20050;-84
2021/12/18 02:07:37;;;;;;;;;;;6.30;99.90;;;;;;4826055;29;20045;-84
2021/12/18 02:10:08;;;;;;;5.13;1.90;;;6.30;99.90;;;;;;4825497;29;20386;-84
2021/12/18 02:13:02;;;;;;;6.55;1.98;;;6.40;99.90;;;;;;4809811;29;20053;-84
2021/12/18 02:21:10;;;;;;;2.88;1.38;;;6.40;99.90;;;;;;4825250;29;20502;-84
2021/12/18 02:23:40;;;;;;;1.75;1.00;;;6.30;99.90;;;;;;4824925;29;20041;-84
2021/12/18 02:26:07;;;;;;;1.13;0.70;;;6.30;99.90;;;;;;4810180;29;20050;-84
2021/12/18 02:28:33;;;;;;;;;;;6.30;99.90;;;;;;4825980;29;20050;-84
2021/12/18 02:30:59;;;;;;;1.40;0.80;;;6.30;99.90;;;;;;4839868;29;19947;-84
2021/12/18 02:33:26;;;;;;;1.73;0.80;;;6.30;99.90;;;;;;4823096;29;20045;-84
2021/12/18 02:35:55;;;;;;;1.83;0.82;;;6.30;99.90;;;;;;4829466;29;20041;-84
2021/12/18 02:38:29;;;;;;;1.83;0.77;;;6.30;99.90;;;;;;4831495;29;20619;-84
2021/12/18 02:43:37;;;;;;;1.30;0.80;;;6.30;99.90;;;;;;4847375;29;20049;-84
2021/12/18 02:46:08;;;;;;;1.73;0.93;;;6.30;99.90;;;;;;4831403;29;20136;-84
2021/12/18 02:48:40;;;;;;;2.58;1.30;;;6.30;99.90;;;;;;4831345;29;20041;-84
2021/12/18 02:51:09;;;;;;;2.30;1.10;;;6.30;99.90;;;;;;4830386;29;20105;-84
2021/12/18 02:53:36;;;;;;;2.38;1.23;;;6.30;99.90;;;;;;4846490;29;20186;-84
2021/12/18 02:56:05;;;;;;;1.80;1.00;;;6.30;99.90;;;;;;4831199;29;20041;-83
2021/12/18 02:58:35;;;;;;;2.85;1.10;;;6.30;99.90;;;;;;4831236;29;20045;-84
2021/12/18 03:01:00;;;;;;;2.08;0.93;;;6.30;99.90;;;;;;4845999;29;20056;-84
2021/12/18 03:03:33;;;;;;;2.47;1.10;;;6.30;99.90;;;;;;4830967;29;20045;-83
2021/12/18 03:24:55;;;;;;;1.15;0.63;;;6.30;99.90;;;;;;4815081;29;20061;-84
2021/12/18 03:27:22;;;;;;;2.25;0.80;;;6.40;99.90;;;;;;4803738;29;20045;-84
2021/12/18 03:29:48;;;;;;;1.85;0.63;;;6.40;99.90;;;;;;4848672;29;20106;-84
2021/12/18 03:32:14;;;;;;;1.80;0.80;;;6.40;99.90;;;;;;4847124;29;20053;-84
2021/12/18 03:34:39;;;;;;;1.58;0.90;;;6.40;99.90;;;;;;4846012;29;20547;-84
2021/12/18 03:37:06;;;;;;;2.10;1.17;;;6.50;99.90;;;;;;4815696;29;20037;-84
2021/12/18 03:39:31;;;;;;;1.38;0.90;;;6.50;99.90;;;;;;4845897;29;20125;-84
2021/12/18 03:41:57;;;;;;;0.98;0.60;;;6.50;99.90;;;;;;4846041;29;20057;-84
2021/12/18 03:44:23;;;;;;;1.70;0.80;;;6.50;99.90;;;;;;4830288;29;20411;-84
2021/12/18 03:46:49;;;;;;;2.35;0.60;;;6.40;99.90;;;;;;4836169;29;20056;-84
2021/12/18 03:49:15;;;;;;;1.40;0.80;;;6.50;99.90;;;;;;4821718;29;20070;-84
2021/12/18 03:51:42;;;;;;;0.98;0.52;;;6.40;99.90;;;;;;4830134;29;20049;-84
2021/12/18 03:54:08;;;;;;;1.05;0.60;;;6.50;99.90;;;;;;4816008;29;20201;-84
2021/12/18 03:56:33;;;;;;;1.27;0.77;;;6.50;99.90;;;;;;4830614;29;20125;-84
2021/12/18 03:58:59;;;;;;;1.23;0.60;;;6.50;99.90;;;;;;4830314;29;20041;-84
2021/12/18 04:01:26;;;;;;;0.77;0.52;;;6.50;99.90;;;;;;4815343;29;20065;-84
2021/12/18 04:03:52;;;;;;;1.50;0.90;;;6.50;99.90;;;;;;4830399;29;20045;-83
2021/12/18 04:06:18;;;;;;;2.17;1.10;;;6.50;99.90;;;;;;4830342;29;20059;-84
2021/12/18 04:08:44;;;;;;;2.05;0.93;;;6.60;99.90;;;;;;4830854;29;20049;-84
2021/12/18 04:11:10;;;;;;;1.70;1.00;;;6.60;99.90;;;;;;4845245;29;20118;-83
2021/12/18 04:13:36;;;;;;;1.35;1.00;;;6.60;99.90;;;;;;4830579;29;20049;-84
2021/12/18 04:16:02;;;;;;;1.13;0.70;;;6.60;99.90;;;;;;4830199;29;20048;-84
2021/12/18 04:18:28;;;;;;;1.52;1.00;;;6.60;99.90;;;;;;4830599;29;20038;-84
2021/12/18 04:20:54;;;;;;;1.23;0.90;;;6.60;99.90;;;;;;4830577;29;20104;-84
2021/12/18 04:23:20;;;;;;;1.25;0.75;;;6.60;99.90;;;;;;4830454;29;20050;-84
2021/12/18 04:25:45;;;;;;;1.10;0.75;;;6.70;99.90;;;;;;4830129;29;20053;-84
2021/12/18 04:28:11;;;;;;;1.73;0.93;;;6.70;99.90;;;;;;4814969;29;20105;-84
2021/12/18 04:30:37;;;;;;;1.73;1.00;;;6.70;99.90;;;;;;4810179;29;20050;-84
2021/12/18 04:33:03;;;;;;;1.65;1.00;;;6.70;99.90;;;;;;4801603;29;20121;-84
2021/12/18 04:35:29;;;;;;;1.30;0.85;;;6.70;99.90;;;;;;4830203;29;20045;-84
2021/12/18 04:37:55;;;;;;;1.42;0.75;;;6.70;99.90;;;;;;4830015;29;20403;-84
2021/12/18 04:40:26;;;;;;;;;;;6.70;99.90;;;;;;4830006;29;20488;-84
2021/12/18 04:42:53;;;;;;;1.83;1.00;;;6.70;99.90;;;;;;4812089;29;20006;-84
2021/12/18 04:45:19;;;;;;;1.92;1.10;;;6.80;99.90;;;;;;4826739;29;20090;-84
2021/12/18 04:47:44;;;;;;;2.15;1.23;;;6.80;99.90;;;;;;4811328;29;20053;-84
2021/12/18 04:50:10;;;;;;;2.20;1.40;;;6.80;99.90;;;;;;4813664;29;20042;-84
2021/12/18 04:52:36;;;;;;;3.35;1.70;;;6.80;99.90;;;;;;4829366;29;20049;-84
2021/12/18 04:55:04;;;;;;;3.83;1.90;;;6.90;99.90;;;;;;4814298;29;20053;-84
2021/12/18 04:57:30;;;;;;;3.60;1.92;;;6.90;99.90;;;;;;4828815;29;20045;-85
2021/12/18 04:59:56;;;;;;;3.22;2.05;;;7.00;99.90;;;;;;4844229;29;20594;-84
2021/12/18 05:02:32;;;;;;;3.28;1.83;;;7.00;99.90;;;;;;4829788;29;20117;-84
2021/12/18 05:04:58;;;;;;;2.67;1.95;;;7.00;99.90;;;;;;4815617;29;20045;-84
2021/12/18 05:07:24;;;;;;;4.35;2.70;;;7.10;99.90;;;;;;4829604;29;20053;-84
2021/12/18 05:09:50;;;;;;;4.15;2.30;;;7.00;99.90;;;;;;4799733;29;20102;-84
2021/12/18 05:12:16;;;;;;;3.05;2.05;;;7.10;99.90;;;;;;4814238;29;20415;-84
2021/12/18 05:14:41;;;;;;;4.53;2.40;;;7.10;99.90;;;;;;4829177;29;20510;-84
2021/12/18 05:17:07;;;;;;;3.00;1.90;;;7.10;99.90;;;;;;4814729;29;20228;-85
2021/12/18 05:19:33;;;;;;;2.92;1.83;;;7.20;99.90;;;;;;4811144;29;20053;-84
2021/12/18 05:21:58;;;;;;;3.08;1.77;;;7.10;99.90;;;;;;4810969;29;20103;-84
2021/12/18 05:24:24;;;;;;;3.35;1.80;;;7.10;99.90;;;;;;4829169;29;20051;-84
2021/12/18 05:26:50;;;;;;;4.32;2.20;;;7.10;99.90;;;;;;4814006;29;20056;-83
2021/12/18 05:29:16;;;;;;;3.60;1.83;;;7.10;99.90;;;;;;4814024;29;20164;-84
2021/12/18 05:31:43;;;;;;;4.05;1.77;;;7.20;99.90;;;;;;4829207;29;20041;-84
2021/12/18 05:34:09;;;;;;;3.65;2.13;;;7.20;99.90;;;;;;4824976;29;20128;-83
2021/12/18 05:39:09;;;;;;;3.25;1.90;;;7.20;99.90;;;;;;4822754;29;20046;-85
2021/12/18 05:41:35;;;;;;;2.83;1.90;;;7.30;99.90;;;;;;4842261;29;20057;-85
2021/12/18 05:44:03;;;;;;;3.50;2.15;;;7.30;99.90;;;;;;4840776;29;20049;-85
2021/12/18 05:46:29;;;;;;;3.90;2.30;;;7.30;99.90;;;;;;4810780;29;20396;-85
2021/12/18 05:48:54;;;;;;;4.25;2.45;;;7.40;99.90;;;;;;4810704;29;20132;-85
2021/12/18 05:51:20;;;;;;;5.30;2.45;;;7.40;99.90;;;;;;4840687;29;20058;-85
2021/12/18 05:53:46;;;;;;;6.45;2.90;;;7.40;99.90;;;;;;4812671;29;20053;-85
2021/12/18 05:56:12;;;;;;;5.80;2.90;;;7.40;99.90;;;;;;4843952;29;20044;-85
2021/12/18 05:58:40;;;;;;;5.70;2.78;;;7.40;99.90;;;;;;4843563;29;20052;-85
2021/12/18 06:01:06;;;;;;;4.45;2.72;;;7.50;99.90;;;;;;4827911;29;20085;-85
2021/12/18 06:03:31;;;;;;;7.32;3.55;;;7.50;99.90;;;;;;4813196;29;20108;-85
2021/12/18 06:05:57;;;;;;;5.93;2.67;;;7.50;99.90;;;;;;4828363;29;20064;-85
2021/12/18 06:08:24;;;;;;;5.22;2.90;;;7.60;99.90;;;;;;4812857;29;20081;-85
2021/12/18 06:10:51;;;;;;;4.85;2.97;;;7.50;99.90;;;;;;4813112;29;20387;-85
2021/12/18 06:13:17;;;;;;;5.30;2.70;;;7.60;99.90;;;;;;4828804;29;20037;-85
2021/12/18 06:15:42;;;;;;;5.18;3.20;;;7.60;99.90;;;;;;4828279;29;20452;-85
2021/12/18 06:18:08;;;;;;;6.65;3.13;;;7.60;99.90;;;;;;4812943;29;20086;-85
2021/12/18 06:20:34;;;;;;;5.32;3.10;;;7.60;99.90;;;;;;4813274;29;20041;-85
2021/12/18 06:23:00;;;;;;;6.07;3.35;;;7.60;99.90;;;;;;4828210;29;20042;-85
2021/12/18 06:25:25;;;;;;;5.05;2.90;;;7.60;99.90;;;;;;4798260;29;20038;-85
2021/12/18 06:27:51;;;;;;;5.80;2.85;;;7.70;99.90;;;;;;4833574;29;20716;-84
2021/12/18 06:30:18;;;;;;;4.78;2.40;;;7.60;99.90;;;;;;4780274;29;20042;-85
2021/12/18 06:32:44;;;;;;;4.93;2.63;;;7.60;99.90;;;;;;4813513;29;20105;-84
2021/12/18 06:35:10;;;;;;;6.63;2.60;;;7.70;99.90;;;;;;4830710;29;20048;-84
2021/12/18 06:37:36;;;;;;;5.07;2.38;;;7.70;99.90;;;;;;4828703;29;20174;-84
2021/12/18 06:40:06;;;;;;;3.28;2.20;;;7.70;99.90;;;;;;4828568;29;20048;-85
2021/12/18 06:42:32;;;;;;;6.70;2.50;;;7.70;99.90;;;;;;4827756;29;20045;-85
2021/12/18 06:44:57;;;;;;;4.97;2.42;;;7.60;99.90;;;;;;4828232;29;20071;-84
2021/12/18 06:47:23;;;;;;;3.42;2.00;;;7.70;99.90;;;;;;4809017;29;20395;-84
2021/12/18 06:49:49;;;;;;;4.22;2.30;;;7.70;99.90;;;;;;4809539;29;20155;-84
2021/12/18 06:52:14;;;;;;;5.72;2.33;;;7.70;99.90;;;;;;4809498;29;20053;-84
2021/12/18 06:54:40;;;;;;;4.82;2.10;;;7.80;99.90;;;;;;4809573;29;20042;-84
2021/12/18 06:57:06;;;;;;;5.55;1.90;;;7.70;99.90;;;;;;4809615;29;20042;-83
2021/12/18 06:59:32;;;;;;;4.57;2.30;;;7.80;99.90;;;;;;4810862;29;20073;-84
2021/12/18 07:01:57;;;;;;;4.00;1.98;;;7.80;99.90;;;;;;4840047;29;20114;-85
2021/12/18 07:04:24;;;;;;;5.38;2.03;;;7.80;99.90;;;;;;4839857;29;20049;-84
2021/12/18 07:06:52;;;;;;;4.65;2.20;;;7.80;99.90;;;;;;4809994;29;20041;-84
2021/12/18 07:09:18;;;;;;;5.20;2.00;;;7.90;99.90;;;;;;4809558;29;20050;-84
2021/12/18 07:11:44;;;;;;;4.85;2.00;;;7.90;99.90;;;;;;4815027;29;20089;-84
2021/12/18 07:14:11;;;;;;;7.05;2.10;;;7.90;99.90;;;;;;4827797;29;20045;-84
2021/12/18 07:16:36;;;;;;;4.30;1.65;;;7.90;99.90;;;;;;4843462;29;20049;-84
2021/12/18 07:19:02;;;;;;;3.15;1.58;;;7.90;99.90;;;;;;4827327;29;20056;-84
2021/12/18 07:21:28;;;;;;;4.55;1.75;;;7.90;99.90;;;;;;4813809;29;20136;-84
2021/12/18 07:23:54;;;;;;;4.95;1.67;;;8.00;99.90;;;;;;4787221;29;20045;-84
2021/12/18 07:26:20;;;;;;;3.50;1.63;;;7.90;99.90;;;;;;4813364;29;20488;-85
2021/12/18 07:28:45;;;;;;;3.88;1.80;;;8.00;99.90;;;;;;4812566;29;20041;-85
2021/12/18 07:31:11;;;;;;;6.68;1.88;;;7.90;99.90;;;;;;4826805;29;20069;-86
2021/12/18 07:33:37;;;;;;;3.50;1.50;;;8.00;99.90;;;;;;4843448;29;20381;-85
2021/12/18 07:36:06;;;;;;;3.97;1.60;;;8.00;99.90;;;;;;4797998;29;20479;-85
2021/12/18 07:38:32;;;;;;;4.20;1.40;;;8.00;99.90;;;;;;4843512;29;20128;-84
2021/12/18 07:40:57;;;;;;;5.03;1.52;;;8.00;99.90;;;;;;4828512;29;20531;-84
2021/12/18 07:43:23;;;;;;;5.55;2.17;;;8.00;99.90;;;;;;4840265;29;20050;-84
2021/12/18 07:45:49;;;;;;;6.75;1.73;;;8.00;99.90;;;;;;4799369;29;20075;-84
2021/12/18 07:48:15;;;;;;;4.57;1.95;;;8.00;99.90;;;;;;4813623;29;20060;-84
2021/12/18 07:50:40;;;;;;;5.97;1.52;;;8.10;99.90;;;;;;4813983;29;20488;-84
2021/12/18 07:53:06;;;;;;;5.70;1.73;;;8.10;99.90;;;;;;4829068;29;20128;-85
2021/12/18 07:55:32;;;;;;;3.00;1.33;;;8.10;99.90;;;;;;4827205;29;20046;-85
2021/12/18 07:57:57;;;;;;;4.03;1.52;;;8.10;99.90;;;;;;4811848;29;20519;-84
2021/12/18 08:00:23;;;;;;;4.45;1.50;;;8.10;99.90;;;;;;4817545;29;20061;-84
2021/12/18 08:02:49;;;;;;;3.53;1.13;;;8.10;99.90;;;;;;4815243;29;20101;-84
2021/12/18 08:05:15;;;;;;;3.00;1.45;;;8.00;99.90;;;;;;4815054;29;20053;-85
2021/12/18 08:07:41;;;;;;;5.68;1.88;;;8.10;99.90;;;;;;4815197;29;20053;-84
2021/12/18 08:10:07;;;;;;;6.40;1.75;;;8.00;99.90;;;;;;4814938;29;20111;-84
2021/12/18 08:12:33;;;;;;;;;;;8.00;99.90;;;;;;4828666;29;20049;-80
2021/12/18 08:14:59;;;;;;;5.57;1.60;;;8.10;99.90;;;;;;4834710;29;19920;-82
2021/12/18 08:17:26;;;;;;;6.15;1.83;;;8.10;99.90;;;;;;4856081;29;20065;-82
2021/12/18 08:19:52;;;;;;;3.72;1.60;;;8.10;99.90;;;;;;4860999;29;20041;-82
2021/12/18 08:22:18;;;;;;;4.10;1.60;;;8.10;99.90;;;;;;4853431;29;20061;-82
2021/12/18 08:24:44;;;;;;;4.03;1.70;;;8.10;99.90;;;;;;4836598;29;20053;-82
2021/12/18 08:27:10;;;;;;;4.00;1.50;;;8.20;99.90;;;;;;4841111;29;20330;-83
2021/12/18 08:29:36;;;;;;;3.55;1.58;;;8.20;99.90;;;;;;4835784;29;20049;-83
2021/12/18 08:32:02;;;;;;;4.22;1.50;;;8.20;99.90;;;;;;4842367;29;20105;-82
2021/12/18 08:34:28;;;;;;;3.25;1.30;;;8.20;99.90;;;;;;4829021;29;20468;-82
2021/12/18 08:36:54;;;;;;;5.93;1.33;;;8.20;99.90;;;;;;4833869;29;20041;-82
2021/12/18 08:39:20;;;;;;;5.43;1.90;;;8.30;99.90;;;;;;4827109;29;20519;-83
2021/12/18 08:41:46;;;;;;;6.38;2.00;;;8.30;99.90;;;;;;4840942;29;20046;-82
2021/12/18 08:44:12;;;;;;;;;;;8.30;99.90;;;;;;4859530;29;20148;-82
2021/12/18 08:46:39;;;;;;;2.92;1.30;;;8.30;99.90;;;;;;4849377;29;19920;-82
2021/12/18 08:49:05;;;;;;;2.83;1.50;;;8.40;99.90;;;;;;4844185;29;20463;-82
2021/12/18 08:51:32;;;;;;;3.55;1.48;;;8.30;99.90;;;;;;4844313;29;20485;-83
2021/12/18 08:53:58;;;;;;;4.60;1.40;;;8.40;99.90;;;;;;4843900;29;20109;-83
2021/12/18 08:56:24;;;;;;;4.35;1.25;;;8.40;99.90;;;;;;4826324;29;20046;-82
2021/12/18 08:58:51;;;;;;;4.97;1.25;;;8.40;99.90;;;;;;4826455;29;20138;-80
2021/12/18 09:01:18;;;;;;;3.38;1.08;;;8.40;99.90;;;;;;4838659;29;20488;-79
2021/12/18 09:03:43;;;;;;;3.53;1.10;;;8.30;99.90;;;;;;4809741;29;20368;-80
2021/12/18 09:06:10;;;;;;;4.75;1.38;;;8.40;99.90;;;;;;4851635;29;20041;-80
2021/12/18 09:08:35;;;;;;;;;;;8.40;99.90;;;;;;4828327;29;20173;-80
2021/12/18 09:11:01;;;;;;;3.42;1.30;;;8.40;99.90;;;;;;4840275;29;20038;-80
2021/12/18 09:13:27;;;;;;;1.77;1.10;;;8.40;99.90;;;;;;4810264;29;20870;-80
2021/12/18 09:15:53;;;;;;;4.53;1.35;;;8.40;99.90;;;;;;4809248;29;20526;-80
2021/12/18 09:18:18;;;;;;;3.20;1.33;;;8.40;99.90;;;;;;4832181;29;20041;-80
2021/12/18 09:20:46;;;;;;;4.35;1.45;;;8.40;99.90;;;;;;4824832;29;20041;-80
2021/12/18 09:23:17;;;;;;;4.13;1.50;;;8.40;99.90;;;;;;4826133;29;20071;-81
2021/12/18 09:25:44;;;;;;;4.88;1.85;;;8.40;99.90;;;;;;4824424;29;20048;-81
2021/12/18 09:28:10;;;;;;;3.53;2.17;;;8.40;99.90;;;;;;4825370;29;20045;-83
2021/12/18 09:30:36;;;;;;;4.40;1.60;;;8.40;99.90;;;;;;4851278;29;20651;-79
2021/12/18 09:33:03;;;;;;;6.70;2.15;;;8.40;99.90;;;;;;4840022;29;20042;-79
2021/12/18 09:35:28;;;;;;;4.05;1.60;;;8.40;99.90;;;;;;4818384;29;20049;-79
2021/12/18 09:37:54;;;;;;;5.18;2.00;;;8.40;99.90;;;;;;4837286;29;20106;-80
2021/12/18 09:40:20;;;;;;;3.70;1.98;;;8.40;99.90;;;;;;4842432;29;20037;-80
2021/12/18 09:42:47;;;;;;;8.10;2.60;;;8.40;99.90;;;;;;4806184;29;20042;-80
2021/12/18 09:45:15;;;;;;;4.78;1.80;;;8.40;99.90;;;;;;4827254;29;20124;-81
2021/12/18 09:47:42;;;;;;;4.47;2.30;;;8.40;99.90;;;;;;4845794;29;20052;-81
2021/12/18 09:50:09;;;;;;;6.30;2.70;;;8.40;99.90;;;;;;4859927;29;20101;-81
2021/12/18 09:52:35;;;;;;;5.72;2.15;;;8.50;99.90;;;;;;4842028;29;20049;-81
2021/12/18 09:55:03;;;;;;;5.47;2.63;;;8.50;99.90;;;;;;4858604;29;20113;-81
2021/12/18 09:57:29;;;;;;;5.20;2.50;;;8.50;99.90;;;;;;4822894;29;20082;-81
2021/12/18 09:59:55;;;;;;;3.03;1.90;;;8.50;99.90;;;;;;4836008;29;20065;-81
2021/12/18 10:02:20;;;;;;;3.67;1.80;;;8.50;99.90;;;;;;4846486;29;20056;-79
2021/12/18 10:04:46;;;;;;;3.88;1.73;;;8.50;99.90;;;;;;4827182;29;20049;-82
2021/12/18 10:07:24;;;;;;;6.75;2.47;;;8.50;99.90;;;;;;4819396;29;20060;-81
2021/12/18 10:09:58;;;;;;;4.05;1.73;;;8.50;99.90;;;;;;4850921;29;20053;-78
2021/12/18 10:12:27;;;;;;;3.53;1.95;;;8.50;99.90;;;;;;4831647;29;20061;-79
2021/12/18 10:14:57;;;;;;;5.40;2.00;;;8.50;99.90;;;;;;4836056;29;20157;-79
2021/12/18 10:17:35;;;;;;;4.25;2.00;;;8.50;99.90;;;;;;4821919;29;20081;-79
2021/12/18 10:20:10;;;;;;;5.97;2.30;;;8.50;99.90;;;;;;4821919;29;20065;-79
2021/12/18 10:22:52;;;;;;;6.50;2.50;;;8.60;99.90;;;;;;4837469;29;20060;-78
2021/12/18 10:25:23;;;;;;;8.73;2.70;;;8.50;99.90;;;;;;4822928;29;20106;-82
2021/12/18 10:27:57;;;;;;;5.30;2.60;;;8.50;99.90;;;;;;4842267;29;20049;-82
2021/12/18 10:30:23;;;;;;;5.85;2.10;;;8.50;99.90;;;;;;4849213;29;20060;-82
2021/12/18 10:33:11;;;;;;;8.15;2.53;;;8.60;99.90;;;;;;4818985;29;20045;-83
2021/12/18 10:35:40;;;;;;;5.68;2.65;;;8.50;99.90;;;;;;4810719;29;20130;-84
2021/12/18 10:38:06;;;;;;;4.70;2.25;;;8.60;99.90;;;;;;4843001;29;20441;-84
2021/12/18 10:40:58;;;;;;;5.15;2.67;;;8.60;99.90;;;;;;4808921;29;20386;-83
2021/12/18 10:43:24;;;;;;;4.50;2.30;;;8.60;99.90;;;;;;4810449;29;20514;-84
2021/12/18 10:45:50;;;;;;;4.90;2.10;;;8.60;99.90;;;;;;4827563;29;20124;-84
2021/12/18 10:48:16;;;;;;;5.47;2.60;;;8.70;99.90;;;;;;4812653;29;20051;-80
2021/12/18 10:51:01;;;;;;;5.75;2.95;;;8.70;99.90;;;;;;4842782;29;20102;-84
2021/12/18 10:53:31;;;;;;;5.95;2.47;;;8.70;99.90;;;;;;4828120;29;20495;-83
2021/12/18 10:56:03;;;;;;;6.05;2.45;;;8.70;99.90;;;;;;4805102;29;20121;-83
2021/12/18 10:58:35;;;;;;;5.35;2.50;;;8.60;99.90;;;;;;4804457;29;20044;-83
2021/12/18 11:01:05;;;;;;;5.82;2.47;;;8.70;99.90;;;;;;4844405;29;20130;-85
2021/12/18 11:03:41;;;;;;;7.07;2.95;;;8.70;99.90;;;;;;4836224;29;20054;-83
2021/12/18 11:06:19;;;;;;;7.97;2.58;;;8.70;99.90;;;;;;4835169;29;20052;-83
2021/12/18 11:09:01;;;;;;;6.28;2.25;;;8.70;99.90;;;;;;4851504;29;20444;-83
2021/12/18 11:14:03;;;;;;;7.32;2.67;;;8.70;99.90;;;;;;4836567;29;20081;-83
2021/12/18 11:16:29;;;;;;;6.30;2.42;;;8.70;99.90;;;;;;4832051;29;20117;-83
2021/12/18 11:18:56;;;;;;;5.03;2.15;;;8.70;99.90;;;;;;4846360;29;20448;-83
2021/12/18 11:21:26;;;;;;;4.75;2.10;;;8.70;99.90;;;;;;4826750;29;20037;-83
2021/12/18 11:24:01;;;;;;;4.75;2.20;;;8.70;99.90;;;;;;4797850;29;20050;-83
2021/12/18 11:26:36;;;;;;;6.82;2.40;;;8.80;99.90;;;;;;4828038;29;20050;-84
2021/12/18 11:29:04;;;;;;;8.27;2.17;;;8.70;99.90;;;;;;4840917;29;20463;-84
2021/12/18 11:31:31;;;;;;;4.15;1.60;;;8.70;99.90;;;;;;4846047;29;20042;-82
2021/12/18 11:33:57;;;;;;;6.28;2.33;;;8.80;99.90;;;;;;4838342;29;20391;-82
2021/12/18 11:36:24;;;;;;;5.88;1.60;;;8.80;99.90;;;;;;4845881;29;20155;-83
2021/12/18 11:38:52;;;;;;;4.63;1.65;;;8.90;99.90;;;;;;4838882;29;20052;-82
2021/12/18 11:41:19;;;;;;;3.70;1.30;;;8.90;99.90;;;;;;4864079;29;20076;-83
2021/12/18 11:43:46;;;;;;;5.43;1.92;;;9.00;99.90;;;;;;4830268;29;20601;-83
2021/12/18 11:46:41;;;;;;;4.43;1.40;;;9.00;99.90;;;;;;4815414;29;20044;-83
2021/12/18 11:49:09;;;;;;;2.22;1.17;;;9.00;99.90;;;;;;4826868;29;20060;-83
2021/12/18 11:51:36;;;;;;;4.85;1.58;;;9.00;99.90;;;;;;4845476;29;20053;-84
2021/12/18 11:54:03;;;;;;;8.18;3.65;;;9.00;99.90;;;;;;4850289;29;20131;-84
2021/12/18 11:56:47;;;;;;;6.88;2.50;;;9.00;99.90;;;;;;4840669;29;20052;-84
2021/12/18 11:59:13;;;;;;;6.47;2.10;;;8.90;99.90;;;;;;4848120;29;20041;-84
2021/12/18 12:01:46;;;;;;;9.55;3.40;;;8.90;99.90;;;;;;4829795;29;20072;-85
2021/12/18 12:04:11;;;;;;;8.43;2.63;;;8.90;99.90;;;;;;4844761;29;20681;-85
2021/12/18 12:06:41;;;;;;;5.57;2.17;;;8.90;99.90;;;;;;4829787;29;20050;-85
2021/12/18 12:09:38;;;;;;;10.10;2.38;;;9.00;99.90;;;;;;4845459;29;20516;-84
2021/12/18 12:12:09;;;;;;;7.05;2.28;;;9.00;99.90;;;;;;4837980;29;20480;-84
2021/12/18 12:14:40;;;;;;;4.32;1.80;;;9.00;99.90;;;;;;4821040;29;20046;-85
2021/12/18 12:17:27;;;;;;;5.68;1.95;;;9.00;99.90;;;;;;4833129;29;20792;-85
2021/12/18 12:19:56;;;;;;;4.28;1.77;;;9.00;99.90;;;;;;4829512;29;20078;-85
2021/12/18 12:22:52;;;;;;;6.03;2.13;;;9.10;99.90;;;;;;4827886;29;20048;-85
2021/12/18 12:25:32;;;;;;;6.00;1.80;;;9.10;99.90;;;;;;4788621;29;20087;-83
2021/12/18 12:28:10;;;;;;;5.93;2.00;;;9.10;99.90;;;;;;4843683;29;20061;-84
2021/12/18 12:30:48;;;;;;;7.72;2.20;;;9.00;99.90;;;;;;4820884;29;20148;-84
2021/12/18 12:33:26;;;;;;;10.13;2.42;;;9.00;99.90;;;;;;4831091;29;20045;-85
2021/12/18 12:35:57;;;;;;;5.15;1.88;;;9.00;99.90;;;;;;4863635;29;20049;-86
2021/12/18 12:38:25;;;;;;;4.07;2.10;;;9.00;99.90;;;;;;4841958;29;20125;-84
2021/12/18 12:40:52;;;;;;;4.32;1.80;;;8.90;99.90;;;;;;4811679;29;20155;-84
2021/12/18 12:43:22;;;;;;;6.35;2.15;;;9.00;99.90;;;;;;4826574;29;20444;-84
2021/12/18 12:45:49;;;;;;;9.85;2.70;;;9.00;99.90;;;;;;4825921;29;20069;-83
2021/12/18 12:48:16;;;;;;;9.05;2.60;;;8.90;99.90;;;;;;4802976;29;20046;-84
2021/12/18 12:50:43;;;;;;;6.82;1.73;;;8.90;99.90;;;;;;4832978;29;20054;-84
2021/12/18 12:53:11;;;;;;;6.65;1.90;;;8.90;99.90;;;;;;4827908;29;20056;-84
2021/12/18 12:55:43;;;;;;;7.93;2.05;;;9.00;99.90;;;;;;4823580;29;20512;-84
2021/12/18 12:58:27;;;;;;;7.30;2.95;;;8.90;99.90;;;;;;4856761;29;20107;-84
2021/12/18 13:01:03;;;;;;;5.50;1.70;;;8.90;99.90;;;;;;4826580;29;20561;-86
2021/12/18 13:03:46;;;;;;;8.27;1.80;;;8.90;99.90;;;;;;4829702;29;20136;-87
2021/12/18 13:06:19;;;;;;;5.30;2.00;;;8.90;99.90;;;;;;4829410;29;20037;-87
2021/12/18 13:08:47;;;;;;;5.80;1.77;;;8.90;99.90;;;;;;4829530;29;20053;-86
2021/12/18 13:11:18;;;;;;;7.75;2.20;;;8.90;99.90;;;;;;4844146;29;20049;-86
2021/12/18 13:13:44;;;;;;;6.78;1.90;;;8.90;99.90;;;;;;4844092;29;20088;-87
2021/12/18 13:16:14;;;;;;;4.53;1.70;;;8.80;99.90;;;;;;4829814;29;20041;-87
2021/12/18 13:18:49;;;;;;;7.78;2.00;;;8.80;99.90;;;;;;4828504;29;20048;-87
2021/12/18 13:21:20;;;;;;;8.73;2.33;;;8.80;99.90;;;;;;4829402;29;20115;-87
2021/12/18 13:23:52;;;;;;;9.52;2.22;;;8.80;99.90;;;;;;4844063;29;20085;-86
2021/12/18 13:26:32;;;;;;;10.50;2.20;;;8.80;99.90;;;;;;4844119;29;20144;-87
2021/12/18 13:29:09;;;;;;;5.95;1.75;;;8.80;99.90;;;;;;4828964;29;20117;-87
2021/12/18 13:31:43;;;;;;;7.15;2.15;;;8.80;99.90;;;;;;4829155;29;20189;-87
2021/12/18 13:34:13;;;;;;;8.23;1.70;;;8.80;99.90;;;;;;4843959;29;20041;-86
2021/12/18 13:37:13;;;;;;;5.32;1.60;;;8.80;99.90;;;;;;4828809;29;20100;-86
2021/12/18 13:39:45;;;;;;;5.35;1.52;;;8.80;99.90;;;;;;4798547;29;20423;-87
2021/12/18 13:42:14;;;;;;;4.40;1.88;;;8.70;99.90;;;;;;4828820;29;20114;-87
2021/12/18 13:44:49;;;;;;;8.30;1.83;;;8.70;99.90;;;;;;4828674;29;20052;-87
2021/12/18 13:47:21;;;;;;;5.35;2.10;;;8.70;99.90;;;;;;4829302;29;20061;-87
2021/12/18 13:49:48;;;;;;;7.07;1.50;;;8.70;99.90;;;;;;4844338;29;20136;-87
2021/12/18 13:52:32;;;;;;;5.00;1.42;;;8.70;99.90;;;;;;4827315;29;20044;-87
2021/12/18 13:54:58;;;;;;;4.05;1.30;;;8.70;99.90;;;;;;4843772;29;20403;-87
2021/12/18 13:57:24;;;;;;;4.22;1.58;;;8.60;99.90;;;;;;4843876;29;20053;-87